Terminal Aerodrome Forecast
Issued by NWS Boston, MA

Home | Current Version | Previous Version | Text Only | Print | Product List | Glossary On
Versions: 1 2 3 4 5 6 7 8 9 10 11 12 13 14 15 16 17 18 19 20 21 22 23 24 25 26 27
924
FTUS41 KBOX 301742
TAFORH
TAF
KORH 301742Z 3018/3118 18005KT P6SM BKN050 BKN120
     FM302200 23006KT P6SM BKN050 BKN100
     FM310200 24006KT P6SM VCSH FEW050 BKN080
     FM311000 18004KT 3SM BR VCSH OVC010
     FM311100 12004KT 3SM BR VCSH OVC010
     FM311300 09004KT P6SM VCSH OVC015=

USA.gov is the U.S. government's official web portal to all federal, state and local government web resources and services.